sensor_id;sensor_type;location;lat;lon;timestamp;temperature;humidity
37276;DHT22;23166;51.150;21.620;2022-12-07T00:01:24;2.50;99.90
37276;DHT22;23166;51.150;21.620;2022-12-07T00:03:53;2.50;99.90
37276;DHT22;23166;51.150;21.620;2022-12-07T00:06:20;2.50;99.90
37276;DHT22;23166;51.150;21.620;2022-12-07T00:08:47;2.50;99.90
37276;DHT22;23166;51.150;21.620;2022-12-07T00:11:16;2.50;99.90
37276;DHT22;23166;51.150;21.620;2022-12-07T00:13:43;2.50;99.90
37276;DHT22;23166;51.150;21.620;2022-12-07T00:16:13;2.50;99.90
37276;DHT22;23166;51.150;21.620;2022-12-07T00:18:40;2.40;99.90
37276;DHT22;23166;51.150;21.620;2022-12-07T00:21:12;2.50;99.90
37276;DHT22;23166;51.150;21.620;2022-12-07T00:23:39;2.50;99.90
37276;DHT22;23166;51.150;21.620;2022-12-07T00:26:08;2.40;99.90
37276;DHT22;23166;51.150;21.620;2022-12-07T00:28:34;2.40;99.90
37276;DHT22;23166;51.150;21.620;2022-12-07T00:31:10;2.40;99.90
37276;DHT22;23166;51.150;21.620;2022-12-07T00:33:34;2.40;99.90
37276;DHT22;23166;51.150;21.620;2022-12-07T00:36:03;2.40;99.90
37276;DHT22;23166;51.150;21.620;2022-12-07T00:38:33;2.40;99.90
37276;DHT22;23166;51.150;21.620;2022-12-07T00:41:03;2.40;99.90
37276;DHT22;23166;51.150;21.620;2022-12-07T00:43:30;2.30;99.90
37276;DHT22;23166;51.150;21.620;2022-12-07T00:45:57;2.30;99.90
37276;DHT22;23166;51.150;21.620;2022-12-07T00:48:24;2.30;99.90
37276;DHT22;23166;51.150;21.620;2022-12-07T00:50:50;2.30;99.90
37276;DHT22;23166;51.150;21.620;2022-12-07T00:53:17;2.30;99.90
37276;DHT22;23166;51.150;21.620;2022-12-07T00:55:44;2.30;99.90
37276;DHT22;23166;51.150;21.620;2022-12-07T00:58:11;2.30;99.90
37276;DHT22;23166;51.150;21.620;2022-12-07T01:00:39;2.30;99.90
37276;DHT22;23166;51.150;21.620;2022-12-07T01:03:06;2.30;99.90
37276;DHT22;23166;51.150;21.620;2022-12-07T01:05:33;2.30;99.90
37276;DHT22;23166;51.150;21.620;2022-12-07T01:08:00;2.20;99.90
37276;DHT22;23166;51.150;21.620;2022-12-07T01:10:27;2.20;99.90
37276;DHT22;23166;51.150;21.620;2022-12-07T01:12:54;2.20;99.90
37276;DHT22;23166;51.150;21.620;2022-12-07T01:15:20;2.20;99.90
37276;DHT22;23166;51.150;21.620;2022-12-07T01:17:47;2.20;99.90
37276;DHT22;23166;51.150;21.620;2022-12-07T01:20:13;2.20;99.90
37276;DHT22;23166;51.150;21.620;2022-12-07T01:22:42;2.20;99.90
37276;DHT22;23166;51.150;21.620;2022-12-07T01:25:11;2.10;99.90
37276;DHT22;23166;51.150;21.620;2022-12-07T01:27:37;2.10;99.90
37276;DHT22;23166;51.150;21.620;2022-12-07T01:30:06;2.10;99.90
37276;DHT22;23166;51.150;21.620;2022-12-07T01:32:33;2.10;99.90
37276;DHT22;23166;51.150;21.620;2022-12-07T01:35:00;2.10;99.90
37276;DHT22;23166;51.150;21.620;2022-12-07T01:37:26;2.10;99.90
37276;DHT22;23166;51.150;21.620;2022-12-07T01:39:53;2.10;99.90
37276;DHT22;23166;51.150;21.620;2022-12-07T01:42:19;2.00;99.90
37276;DHT22;23166;51.150;21.620;2022-12-07T01:47:52;2.00;99.90
37276;DHT22;23166;51.150;21.620;2022-12-07T01:50:16;2.00;99.90
37276;DHT22;23166;51.150;21.620;2022-12-07T01:52:43;2.00;99.90
37276;DHT22;23166;51.150;21.620;2022-12-07T01:55:13;2.00;99.90
37276;DHT22;23166;51.150;21.620;2022-12-07T01:57:43;2.00;99.90
37276;DHT22;23166;51.150;21.620;2022-12-07T02:00:11;1.90;99.90
37276;DHT22;23166;51.150;21.620;2022-12-07T02:05:14;1.90;99.90
37276;DHT22;23166;51.150;21.620;2022-12-07T02:07:40;1.90;99.90
37276;DHT22;23166;51.150;21.620;2022-12-07T02:10:18;1.90;99.90
37276;DHT22;23166;51.150;21.620;2022-12-07T02:12:44;1.90;99.90
37276;DHT22;23166;51.150;21.620;2022-12-07T02:15:13;1.80;99.90
37276;DHT22;23166;51.150;21.620;2022-12-07T02:17:45;1.80;99.90
37276;DHT22;23166;51.150;21.620;2022-12-07T02:32:11;1.70;99.90
37276;DHT22;23166;51.150;21.620;2022-12-07T02:34:22;1.60;99.90
37276;DHT22;23166;51.150;21.620;2022-12-07T02:36:52;1.60;99.90
37276;DHT22;23166;51.150;21.620;2022-12-07T02:39:23;1.60;99.90
37276;DHT22;23166;51.150;21.620;2022-12-07T02:41:54;1.50;99.90
37276;DHT22;23166;51.150;21.620;2022-12-07T02:44:20;1.50;99.90
37276;DHT22;23166;51.150;21.620;2022-12-07T02:47:01;1.40;99.90
37276;DHT22;23166;51.150;21.620;2022-12-07T02:49:28;1.40;99.90
37276;DHT22;23166;51.150;21.620;2022-12-07T02:51:54;1.40;99.90
37276;DHT22;23166;51.150;21.620;2022-12-07T02:54:21;1.40;99.90
37276;DHT22;23166;51.150;21.620;2022-12-07T02:56:52;1.40;99.90
37276;DHT22;23166;51.150;21.620;2022-12-07T03:10:54;1.30;99.90
37276;DHT22;23166;51.150;21.620;2022-12-07T03:18:56;1.30;99.90
37276;DHT22;23166;51.150;21.620;2022-12-07T03:21:32;1.30;99.90
37276;DHT22;23166;51.150;21.620;2022-12-07T03:24:03;1.20;99.90
37276;DHT22;23166;51.150;21.620;2022-12-07T03:26:32;1.20;99.90
37276;DHT22;23166;51.150;21.620;2022-12-07T03:29:02;1.20;99.90
37276;DHT22;23166;51.150;21.620;2022-12-07T03:31:32;1.20;99.90
37276;DHT22;23166;51.150;21.620;2022-12-07T03:34:06;1.20;99.90
37276;DHT22;23166;51.150;21.620;2022-12-07T03:41:59;1.20;99.90
37276;DHT22;23166;51.150;21.620;2022-12-07T03:44:26;1.20;99.90
37276;DHT22;23166;51.150;21.620;2022-12-07T03:55:09;1.10;99.90
37276;DHT22;23166;51.150;21.620;2022-12-07T03:57:35;1.10;99.90
37276;DHT22;23166;51.150;21.620;2022-12-07T04:00:04;1.10;99.90
37276;DHT22;23166;51.150;21.620;2022-12-07T04:02:32;1.10;99.90
37276;DHT22;23166;51.150;21.620;2022-12-07T04:04:59;1.10;99.90
37276;DHT22;23166;51.150;21.620;2022-12-07T04:07:25;1.10;99.90
37276;DHT22;23166;51.150;21.620;2022-12-07T04:09:51;1.10;99.90
37276;DHT22;23166;51.150;21.620;2022-12-07T04:12:21;1.10;99.90
37276;DHT22;23166;51.150;21.620;2022-12-07T04:14:47;1.00;99.90
37276;DHT22;23166;51.150;21.620;2022-12-07T04:17:14;1.00;99.90
37276;DHT22;23166;51.150;21.620;2022-12-07T04:19:40;1.00;99.90
37276;DHT22;23166;51.150;21.620;2022-12-07T04:22:07;1.00;99.90
37276;DHT22;23166;51.150;21.620;2022-12-07T04:24:34;1.00;99.90
37276;DHT22;23166;51.150;21.620;2022-12-07T04:27:00;0.90;99.90
37276;DHT22;23166;51.150;21.620;2022-12-07T04:29:26;0.90;99.90
37276;DHT22;23166;51.150;21.620;2022-12-07T04:31:53;0.90;99.90
37276;DHT22;23166;51.150;21.620;2022-12-07T04:34:20;0.80;99.90
37276;DHT22;23166;51.150;21.620;2022-12-07T04:36:47;0.90;99.90
37276;DHT22;23166;51.150;21.620;2022-12-07T04:39:28;0.80;99.90
37276;DHT22;23166;51.150;21.620;2022-12-07T04:41:55;0.80;99.90
37276;DHT22;23166;51.150;21.620;2022-12-07T04:44:23;0.80;99.90
37276;DHT22;23166;51.150;21.620;2022-12-07T04:46:50;0.80;99.90
37276;DHT22;23166;51.150;21.620;2022-12-07T04:49:17;0.80;99.90
37276;DHT22;23166;51.150;21.620;2022-12-07T04:51:45;0.80;99.90
37276;DHT22;23166;51.150;21.620;2022-12-07T04:54:12;0.70;99.90
37276;DHT22;23166;51.150;21.620;2022-12-07T04:56:39;0.80;99.90
37276;DHT22;23166;51.150;21.620;2022-12-07T04:59:05;0.70;99.90
37276;DHT22;23166;51.150;21.620;2022-12-07T05:01:33;0.70;99.90
37276;DHT22;23166;51.150;21.620;2022-12-07T05:03:59;0.80;99.90
37276;DHT22;23166;51.150;21.620;2022-12-07T05:06:26;0.80;99.90
37276;DHT22;23166;51.150;21.620;2022-12-07T05:08:53;0.80;99.90
37276;DHT22;23166;51.150;21.620;2022-12-07T05:11:19;0.80;99.90
37276;DHT22;23166;51.150;21.620;2022-12-07T05:14:13;0.70;99.90
37276;DHT22;23166;51.150;21.620;2022-12-07T05:16:40;0.80;99.90
37276;DHT22;23166;51.150;21.620;2022-12-07T05:19:08;0.70;99.90
37276;DHT22;23166;51.150;21.620;2022-12-07T05:21:36;0.70;99.90
37276;DHT22;23166;51.150;21.620;2022-12-07T05:24:03;0.70;99.90
37276;DHT22;23166;51.150;21.620;2022-12-07T05:26:30;0.70;99.90
37276;DHT22;23166;51.150;21.620;2022-12-07T05:28:57;0.70;99.90
37276;DHT22;23166;51.150;21.620;2022-12-07T05:31:24;0.70;99.90
37276;DHT22;23166;51.150;21.620;2022-12-07T05:33:51;0.70;99.90
37276;DHT22;23166;51.150;21.620;2022-12-07T05:36:17;0.80;99.90
37276;DHT22;23166;51.150;21.620;2022-12-07T05:38:44;0.70;99.90
37276;DHT22;23166;51.150;21.620;2022-12-07T05:41:13;0.70;99.90
37276;DHT22;23166;51.150;21.620;2022-12-07T05:43:42;0.70;99.90
37276;DHT22;23166;51.150;21.620;2022-12-07T05:46:08;0.70;99.90
37276;DHT22;23166;51.150;21.620;2022-12-07T05:48:35;0.70;99.90
37276;DHT22;23166;51.150;21.620;2022-12-07T05:51:02;0.70;99.90
37276;DHT22;23166;51.150;21.620;2022-12-07T05:53:29;0.70;99.90
37276;DHT22;23166;51.150;21.620;2022-12-07T05:55:56;0.70;99.90
37276;DHT22;23166;51.150;21.620;2022-12-07T05:58:22;0.70;99.90
37276;DHT22;23166;51.150;21.620;2022-12-07T06:01:07;0.70;99.90
37276;DHT22;23166;51.150;21.620;2022-12-07T06:03:33;0.70;99.90
37276;DHT22;23166;51.150;21.620;2022-12-07T06:06:00;0.70;99.90
37276;DHT22;23166;51.150;21.620;2022-12-07T06:08:26;0.70;99.90
37276;DHT22;23166;51.150;21.620;2022-12-07T06:10:52;0.70;99.90
37276;DHT22;23166;51.150;21.620;2022-12-07T06:13:20;0.70;99.90
37276;DHT22;23166;51.150;21.620;2022-12-07T06:15:47;0.70;99.90
37276;DHT22;23166;51.150;21.620;2022-12-07T06:18:13;0.70;99.90
37276;DHT22;23166;51.150;21.620;2022-12-07T06:20:40;0.70;99.90
37276;DHT22;23166;51.150;21.620;2022-12-07T06:23:06;0.60;99.90
37276;DHT22;23166;51.150;21.620;2022-12-07T06:25:32;0.70;99.90
37276;DHT22;23166;51.150;21.620;2022-12-07T06:27:59;0.60;99.90
37276;DHT22;23166;51.150;21.620;2022-12-07T06:30:25;0.70;99.90
37276;DHT22;23166;51.150;21.620;2022-12-07T06:32:52;0.60;99.90
37276;DHT22;23166;51.150;21.620;2022-12-07T06:35:18;0.70;99.90
37276;DHT22;23166;51.150;21.620;2022-12-07T06:37:45;0.70;99.90
37276;DHT22;23166;51.150;21.620;2022-12-07T06:40:11;0.60;99.90
37276;DHT22;23166;51.150;21.620;2022-12-07T06:42:38;0.60;99.90
37276;DHT22;23166;51.150;21.620;2022-12-07T06:45:05;0.60;99.90
37276;DHT22;23166;51.150;21.620;2022-12-07T06:47:32;0.60;99.90
37276;DHT22;23166;51.150;21.620;2022-12-07T06:49:58;0.70;99.90
37276;DHT22;23166;51.150;21.620;2022-12-07T06:52:25;0.60;99.90
37276;DHT22;23166;51.150;21.620;2022-12-07T06:54:51;0.70;99.90
37276;DHT22;23166;51.150;21.620;2022-12-07T06:57:17;0.70;99.90
37276;DHT22;23166;51.150;21.620;2022-12-07T06:59:46;0.60;99.90
37276;DHT22;23166;51.150;21.620;2022-12-07T07:02:12;0.70;99.90
37276;DHT22;23166;51.150;21.620;2022-12-07T07:04:38;0.70;99.90
37276;DHT22;23166;51.150;21.620;2022-12-07T07:07:05;0.70;99.90
37276;DHT22;23166;51.150;21.620;2022-12-07T07:09:31;0.70;99.90
37276;DHT22;23166;51.150;21.620;2022-12-07T07:11:58;0.70;99.90
37276;DHT22;23166;51.150;21.620;2022-12-07T07:14:24;0.70;99.90
37276;DHT22;23166;51.150;21.620;2022-12-07T07:16:50;0.70;99.90
37276;DHT22;23166;51.150;21.620;2022-12-07T07:19:17;0.70;99.90
37276;DHT22;23166;51.150;21.620;2022-12-07T07:21:43;0.70;99.90
37276;DHT22;23166;51.150;21.620;2022-12-07T07:24:09;0.70;99.90
37276;DHT22;23166;51.150;21.620;2022-12-07T07:26:36;0.70;99.90
37276;DHT22;23166;51.150;21.620;2022-12-07T07:29:02;0.70;99.90
37276;DHT22;23166;51.150;21.620;2022-12-07T07:31:28;0.70;99.90
37276;DHT22;23166;51.150;21.620;2022-12-07T07:33:55;0.70;99.90
37276;DHT22;23166;51.150;21.620;2022-12-07T07:36:21;0.70;99.90
37276;DHT22;23166;51.150;21.620;2022-12-07T07:38:48;0.80;99.90
37276;DHT22;23166;51.150;21.620;2022-12-07T07:41:14;0.80;99.90
37276;DHT22;23166;51.150;21.620;2022-12-07T07:43:41;0.80;99.90
37276;DHT22;23166;51.150;21.620;2022-12-07T07:46:07;0.80;99.90
37276;DHT22;23166;51.150;21.620;2022-12-07T07:48:33;0.80;99.90
37276;DHT22;23166;51.150;21.620;2022-12-07T07:51:00;0.80;99.90
37276;DHT22;23166;51.150;21.620;2022-12-07T07:53:26;0.80;99.90
37276;DHT22;23166;51.150;21.620;2022-12-07T07:55:53;0.80;99.90
37276;DHT22;23166;51.150;21.620;2022-12-07T07:58:20;0.90;99.90
37276;DHT22;23166;51.150;21.620;2022-12-07T08:00:47;0.80;99.90
37276;DHT22;23166;51.150;21.620;2022-12-07T08:03:14;0.90;99.90
37276;DHT22;23166;51.150;21.620;2022-12-07T08:05:40;0.90;99.90
37276;DHT22;23166;51.150;21.620;2022-12-07T08:08:07;0.90;99.90
37276;DHT22;23166;51.150;21.620;2022-12-07T08:10:33;1.00;99.90
37276;DHT22;23166;51.150;21.620;2022-12-07T08:13:01;1.00;99.90
37276;DHT22;23166;51.150;21.620;2022-12-07T08:15:42;1.10;99.90
37276;DHT22;23166;51.150;21.620;2022-12-07T08:18:08;1.10;99.90
37276;DHT22;23166;51.150;21.620;2022-12-07T08:20:35;1.20;99.90
37276;DHT22;23166;51.150;21.620;2022-12-07T08:23:02;1.20;99.90
37276;DHT22;23166;51.150;21.620;2022-12-07T08:25:29;1.30;99.90
37276;DHT22;23166;51.150;21.620;2022-12-07T08:27:56;1.30;99.90
37276;DHT22;23166;51.150;21.620;2022-12-07T08:30:22;1.30;99.90
37276;DHT22;23166;51.150;21.620;2022-12-07T08:32:48;1.30;99.90
37276;DHT22;23166;51.150;21.620;2022-12-07T08:35:15;1.40;99.90
37276;DHT22;23166;51.150;21.620;2022-12-07T08:37:42;1.40;99.90
37276;DHT22;23166;51.150;21.620;2022-12-07T08:40:10;1.40;99.90
37276;DHT22;23166;51.150;21.620;2022-12-07T08:42:37;1.40;99.90
37276;DHT22;23166;51.150;21.620;2022-12-07T08:45:08;1.40;99.90
37276;DHT22;23166;51.150;21.620;2022-12-07T08:50:21;1.40;99.90
37276;DHT22;23166;51.150;21.620;2022-12-07T08:52:50;1.50;99.90
37276;DHT22;23166;51.150;21.620;2022-12-07T08:55:18;1.40;99.90
37276;DHT22;23166;51.150;21.620;2022-12-07T08:57:44;1.50;99.90
37276;DHT22;23166;51.150;21.620;2022-12-07T09:00:11;1.50;99.90
37276;DHT22;23166;51.150;21.620;2022-12-07T09:02:38;1.50;99.90
37276;DHT22;23166;51.150;21.620;2022-12-07T09:05:05;1.60;99.90
37276;DHT22;23166;51.150;21.620;2022-12-07T09:07:31;1.60;99.90
37276;DHT22;23166;51.150;21.620;2022-12-07T09:09:59;1.60;99.90
37276;DHT22;23166;51.150;21.620;2022-12-07T09:12:25;1.60;99.90
37276;DHT22;23166;51.150;21.620;2022-12-07T09:14:51;1.70;99.90
37276;DHT22;23166;51.150;21.620;2022-12-07T09:17:18;1.70;99.90
37276;DHT22;23166;51.150;21.620;2022-12-07T09:19:44;1.70;99.90
37276;DHT22;23166;51.150;21.620;2022-12-07T09:22:11;1.70;99.90
37276;DHT22;23166;51.150;21.620;2022-12-07T09:24:37;1.70;99.90
37276;DHT22;23166;51.150;21.620;2022-12-07T09:27:03;1.80;99.90
37276;DHT22;23166;51.150;21.620;2022-12-07T09:29:30;1.80;99.90
37276;DHT22;23166;51.150;21.620;2022-12-07T09:31:56;1.80;99.90
37276;DHT22;23166;51.150;21.620;2022-12-07T09:34:23;1.90;99.90
37276;DHT22;23166;51.150;21.620;2022-12-07T09:36:49;1.90;99.90
37276;DHT22;23166;51.150;21.620;2022-12-07T09:39:15;1.90;99.90
37276;DHT22;23166;51.150;21.620;2022-12-07T09:41:44;2.00;99.90
37276;DHT22;23166;51.150;21.620;2022-12-07T09:44:13;2.00;99.90
37276;DHT22;23166;51.150;21.620;2022-12-07T09:46:42;2.00;99.90
37276;DHT22;23166;51.150;21.620;2022-12-07T09:49:18;2.10;99.90
37276;DHT22;23166;51.150;21.620;2022-12-07T09:51:42;2.20;99.90
37276;DHT22;23166;51.150;21.620;2022-12-07T09:54:14;2.20;99.90
37276;DHT22;23166;51.150;21.620;2022-12-07T09:56:41;2.30;99.90
37276;DHT22;23166;51.150;21.620;2022-12-07T09:59:13;2.30;99.90
37276;DHT22;23166;51.150;21.620;2022-12-07T10:01:41;2.20;99.90
37276;DHT22;23166;51.150;21.620;2022-12-07T10:04:20;2.20;99.90
37276;DHT22;23166;51.150;21.620;2022-12-07T10:06:47;2.30;99.90
37276;DHT22;23166;51.150;21.620;2022-12-07T10:09:16;2.30;99.90
37276;DHT22;23166;51.150;21.620;2022-12-07T10:12:08;2.40;99.90
37276;DHT22;23166;51.150;21.620;2022-12-07T10:14:37;2.40;99.90
37276;DHT22;23166;51.150;21.620;2022-12-07T10:20:22;2.50;99.90
37276;DHT22;23166;51.150;21.620;2022-12-07T10:23:03;2.50;99.90
37276;DHT22;23166;51.150;21.620;2022-12-07T10:25:33;2.50;99.90
37276;DHT22;23166;51.150;21.620;2022-12-07T10:28:19;2.50;99.90
37276;DHT22;23166;51.150;21.620;2022-12-07T10:31:00;2.60;99.90
37276;DHT22;23166;51.150;21.620;2022-12-07T10:33:48;2.60;99.90
37276;DHT22;23166;51.150;21.620;2022-12-07T10:36:26;2.60;99.90
37276;DHT22;23166;51.150;21.620;2022-12-07T10:41:58;2.60;99.90
37276;DHT22;23166;51.150;21.620;2022-12-07T10:44:32;2.60;99.90
37276;DHT22;23166;51.150;21.620;2022-12-07T11:11:35;2.40;99.90
37276;DHT22;23166;51.150;21.620;2022-12-07T11:22:30;2.50;99.90
37276;DHT22;23166;51.150;21.620;2022-12-07T11:25:13;2.50;99.90
37276;DHT22;23166;51.150;21.620;2022-12-07T11:28:02;2.50;99.90
37276;DHT22;23166;51.150;21.620;2022-12-07T11:38:55;2.50;99.90
37276;DHT22;23166;51.150;21.620;2022-12-07T11:41:27;2.50;99.90
37276;DHT22;23166;51.150;21.620;2022-12-07T11:46:25;2.60;99.90
37276;DHT22;23166;51.150;21.620;2022-12-07T11:49:26;2.60;99.90
37276;DHT22;23166;51.150;21.620;2022-12-07T11:51:54;2.70;99.90
37276;DHT22;23166;51.150;21.620;2022-12-07T11:54:25;2.80;99.90
37276;DHT22;23166;51.150;21.620;2022-12-07T11:56:53;2.90;99.90
37276;DHT22;23166;51.150;21.620;2022-12-07T11:59:31;2.90;99.90
37276;DHT22;23166;51.150;21.620;2022-12-07T12:02:03;3.00;99.90
37276;DHT22;23166;51.150;21.620;2022-12-07T12:07:17;3.00;99.90
37276;DHT22;23166;51.150;21.620;2022-12-07T12:10:35;3.10;99.90
37276;DHT22;23166;51.150;21.620;2022-12-07T12:23:20;2.80;99.90
37276;DHT22;23166;51.150;21.620;2022-12-07T12:25:55;2.80;99.90
37276;DHT22;23166;51.150;21.620;2022-12-07T12:28:33;2.80;99.90
37276;DHT22;23166;51.150;21.620;2022-12-07T12:31:15;2.70;99.90
37276;DHT22;23166;51.150;21.620;2022-12-07T12:33:49;2.70;99.90
37276;DHT22;23166;51.150;21.620;2022-12-07T12:46:58;2.60;99.90
37276;DHT22;23166;51.150;21.620;2022-12-07T12:55:00;2.50;99.90
37276;DHT22;23166;51.150;21.620;2022-12-07T12:57:30;2.50;99.90
37276;DHT22;23166;51.150;21.620;2022-12-07T12:59:58;2.50;99.90
37276;DHT22;23166;51.150;21.620;2022-12-07T13:08:05;2.40;99.90
37276;DHT22;23166;51.150;21.620;2022-12-07T13:10:38;2.40;99.90
37276;DHT22;23166;51.150;21.620;2022-12-07T13:29:13;2.10;99.90
37276;DHT22;23166;51.150;21.620;2022-12-07T13:31:39;2.10;99.90
37276;DHT22;23166;51.150;21.620;2022-12-07T13:37:12;2.00;99.90
37276;DHT22;23166;51.150;21.620;2022-12-07T13:39:49;2.00;99.90
37276;DHT22;23166;51.150;21.620;2022-12-07T13:42:30;2.00;99.90
37276;DHT22;23166;51.150;21.620;2022-12-07T13:44:59;2.00;99.90
37276;DHT22;23166;51.150;21.620;2022-12-07T13:50:30;1.90;99.90
37276;DHT22;23166;51.150;21.620;2022-12-07T13:52:58;1.90;99.90
37276;DHT22;23166;51.150;21.620;2022-12-07T13:55:25;2.00;99.90
37276;DHT22;23166;51.150;21.620;2022-12-07T13:57:53;2.00;99.90
37276;DHT22;23166;51.150;21.620;2022-12-07T14:00:28;2.00;99.90
37276;DHT22;23166;51.150;21.620;2022-12-07T14:05:33;2.00;99.90
37276;DHT22;23166;51.150;21.620;2022-12-07T14:10:52;2.00;99.90
37276;DHT22;23166;51.150;21.620;2022-12-07T14:15:52;2.00;99.90
37276;DHT22;23166;51.150;21.620;2022-12-07T14:23:39;1.90;99.90
37276;DHT22;23166;51.150;21.620;2022-12-07T14:26:24;1.90;99.90
37276;DHT22;23166;51.150;21.620;2022-12-07T14:28:51;2.00;99.90
37276;DHT22;23166;51.150;21.620;2022-12-07T14:31:21;2.00;99.90
37276;DHT22;23166;51.150;21.620;2022-12-07T14:33:47;1.90;99.90
37276;DHT22;23166;51.150;21.620;2022-12-07T14:36:14;2.00;99.90
37276;DHT22;23166;51.150;21.620;2022-12-07T14:38:41;2.00;99.90
37276;DHT22;23166;51.150;21.620;2022-12-07T14:41:13;1.90;99.90
37276;DHT22;23166;51.150;21.620;2022-12-07T14:44:00;1.90;99.90
37276;DHT22;23166;51.150;21.620;2022-12-07T14:46:26;1.90;99.90
37276;DHT22;23166;51.150;21.620;2022-12-07T14:48:52;1.90;99.90
37276;DHT22;23166;51.150;21.620;2022-12-07T14:51:19;1.90;99.90
37276;DHT22;23166;51.150;21.620;2022-12-07T14:53:50;1.90;99.90
37276;DHT22;23166;51.150;21.620;2022-12-07T14:56:16;1.80;99.90
37276;DHT22;23166;51.150;21.620;2022-12-07T14:58:43;1.90;99.90
37276;DHT22;23166;51.150;21.620;2022-12-07T15:01:09;1.90;99.90
37276;DHT22;23166;51.150;21.620;2022-12-07T15:03:36;1.90;99.90
37276;DHT22;23166;51.150;21.620;2022-12-07T15:06:05;1.90;99.90
37276;DHT22;23166;51.150;21.620;2022-12-07T15:08:32;1.90;99.90
37276;DHT22;23166;51.150;21.620;2022-12-07T15:10:58;1.90;99.90
37276;DHT22;23166;51.150;21.620;2022-12-07T15:13:25;1.90;99.90
37276;DHT22;23166;51.150;21.620;2022-12-07T15:16:11;1.90;99.90
37276;DHT22;23166;51.150;21.620;2022-12-07T15:18:39;1.90;99.90
37276;DHT22;23166;51.150;21.620;2022-12-07T15:21:05;1.80;99.90
37276;DHT22;23166;51.150;21.620;2022-12-07T15:23:31;1.80;99.90
37276;DHT22;23166;51.150;21.620;2022-12-07T15:25:58;1.80;99.90
37276;DHT22;23166;51.150;21.620;2022-12-07T15:28:24;1.80;99.90
37276;DHT22;23166;51.150;21.620;2022-12-07T15:30:51;1.80;99.90
37276;DHT22;23166;51.150;21.620;2022-12-07T15:33:17;1.80;99.90
37276;DHT22;23166;51.150;21.620;2022-12-07T15:35:44;1.80;99.90
37276;DHT22;23166;51.150;21.620;2022-12-07T15:38:11;1.80;99.90
37276;DHT22;23166;51.150;21.620;2022-12-07T15:40:37;1.80;99.90
37276;DHT22;23166;51.150;21.620;2022-12-07T15:43:04;1.80;99.90
37276;DHT22;23166;51.150;21.620;2022-12-07T15:45:31;1.80;99.90
37276;DHT22;23166;51.150;21.620;2022-12-07T15:47:57;1.80;99.90
37276;DHT22;23166;51.150;21.620;2022-12-07T15:50:24;1.80;99.90
37276;DHT22;23166;51.150;21.620;2022-12-07T15:52:50;1.80;99.90
37276;DHT22;23166;51.150;21.620;2022-12-07T15:55:17;1.80;99.90
37276;DHT22;23166;51.150;21.620;2022-12-07T15:57:43;1.80;99.90
37276;DHT22;23166;51.150;21.620;2022-12-07T16:00:10;1.80;99.90
37276;DHT22;23166;51.150;21.620;2022-12-07T16:02:37;1.80;99.90
37276;DHT22;23166;51.150;21.620;2022-12-07T16:05:04;1.90;99.90
37276;DHT22;23166;51.150;21.620;2022-12-07T16:07:30;1.80;99.90
37276;DHT22;23166;51.150;21.620;2022-12-07T16:09:56;1.80;99.90
37276;DHT22;23166;51.150;21.620;2022-12-07T16:12:23;1.90;99.90
37276;DHT22;23166;51.150;21.620;2022-12-07T16:14:50;1.90;99.90
37276;DHT22;23166;51.150;21.620;2022-12-07T16:17:17;1.90;99.90
37276;DHT22;23166;51.150;21.620;2022-12-07T16:19:43;1.90;99.90
37276;DHT22;23166;51.150;21.620;2022-12-07T16:22:10;1.90;99.90
37276;DHT22;23166;51.150;21.620;2022-12-07T16:24:36;1.90;99.90
37276;DHT22;23166;51.150;21.620;2022-12-07T16:27:03;1.90;99.90
37276;DHT22;23166;51.150;21.620;2022-12-07T16:29:29;1.90;99.90
37276;DHT22;23166;51.150;21.620;2022-12-07T16:31:55;1.90;99.90
37276;DHT22;23166;51.150;21.620;2022-12-07T16:34:22;1.90;99.90
37276;DHT22;23166;51.150;21.620;2022-12-07T16:36:48;1.90;99.90
37276;DHT22;23166;51.150;21.620;2022-12-07T16:39:15;1.80;99.90
37276;DHT22;23166;51.150;21.620;2022-12-07T16:41:41;1.80;99.90
37276;DHT22;23166;51.150;21.620;2022-12-07T16:44:10;1.70;99.90
37276;DHT22;23166;51.150;21.620;2022-12-07T16:46:36;1.60;99.90
37276;DHT22;23166;51.150;21.620;2022-12-07T16:49:04;1.50;99.90
37276;DHT22;23166;51.150;21.620;2022-12-07T16:51:30;1.40;99.90
37276;DHT22;23166;51.150;21.620;2022-12-07T16:53:57;1.30;99.90
37276;DHT22;23166;51.150;21.620;2022-12-07T16:56:24;1.20;99.90
37276;DHT22;23166;51.150;21.620;2022-12-07T16:58:52;1.10;99.90
37276;DHT22;23166;51.150;21.620;2022-12-07T17:01:20;1.10;99.90
37276;DHT22;23166;51.150;21.620;2022-12-07T17:03:49;1.00;99.90
37276;DHT22;23166;51.150;21.620;2022-12-07T17:06:21;1.00;99.90
37276;DHT22;23166;51.150;21.620;2022-12-07T17:08:49;1.00;99.90
37276;DHT22;23166;51.150;21.620;2022-12-07T17:11:22;0.90;99.90
37276;DHT22;23166;51.150;21.620;2022-12-07T17:13:49;0.90;99.90
37276;DHT22;23166;51.150;21.620;2022-12-07T17:16:34;0.90;99.90
37276;DHT22;23166;51.150;21.620;2022-12-07T17:19:05;1.00;99.90
37276;DHT22;23166;51.150;21.620;2022-12-07T17:33:48;1.10;99.90
37276;DHT22;23166;51.150;21.620;2022-12-07T17:36:24;1.30;99.90
37276;DHT22;23166;51.150;21.620;2022-12-07T17:38:48;1.20;99.90
37276;DHT22;23166;51.150;21.620;2022-12-07T17:41:21;1.10;99.90
37276;DHT22;23166;51.150;21.620;2022-12-07T17:44:09;1.00;99.90
37276;DHT22;23166;51.150;21.620;2022-12-07T17:46:36;0.90;99.90
37276;DHT22;23166;51.150;21.620;2022-12-07T17:49:05;0.80;99.90
37276;DHT22;23166;51.150;21.620;2022-12-07T17:51:32;0.70;99.90
37276;DHT22;23166;51.150;21.620;2022-12-07T17:54:17;0.60;99.90
37276;DHT22;23166;51.150;21.620;2022-12-07T17:56:44;0.60;99.90
37276;DHT22;23166;51.150;21.620;2022-12-07T17:59:11;0.50;99.90
37276;DHT22;23166;51.150;21.620;2022-12-07T18:01:38;0.50;99.90
37276;DHT22;23166;51.150;21.620;2022-12-07T18:04:06;0.50;99.90
37276;DHT22;23166;51.150;21.620;2022-12-07T18:06:33;0.40;99.90
37276;DHT22;23166;51.150;21.620;2022-12-07T18:09:00;0.40;99.90
37276;DHT22;23166;51.150;21.620;2022-12-07T18:11:26;0.40;99.90
37276;DHT22;23166;51.150;21.620;2022-12-07T18:13:52;0.30;99.90
37276;DHT22;23166;51.150;21.620;2022-12-07T18:16:22;0.30;99.90
37276;DHT22;23166;51.150;21.620;2022-12-07T18:18:49;0.30;99.90
37276;DHT22;23166;51.150;21.620;2022-12-07T18:21:20;0.30;99.90
37276;DHT22;23166;51.150;21.620;2022-12-07T18:23:48;0.30;99.90
37276;DHT22;23166;51.150;21.620;2022-12-07T18:26:18;0.30;99.90
37276;DHT22;23166;51.150;21.620;2022-12-07T18:28:45;0.30;99.90
37276;DHT22;23166;51.150;21.620;2022-12-07T18:31:15;0.30;99.90
37276;DHT22;23166;51.150;21.620;2022-12-07T18:33:45;0.30;99.90
37276;DHT22;23166;51.150;21.620;2022-12-07T18:36:15;0.40;99.90
37276;DHT22;23166;51.150;21.620;2022-12-07T18:38:42;0.40;99.90
37276;DHT22;23166;51.150;21.620;2022-12-07T18:41:13;0.40;99.90
37276;DHT22;23166;51.150;21.620;2022-12-07T18:43:36;0.40;99.90